Terminal Aerodrome Forecast
Issued by NWS

Home | Current Version | Previous Version | Text Only | Print | Product List | Glossary On
Versions: 1 2 3 4 5 6 7 8 9 10 11 12 13 14 15 16 17 18 19 20 21 22 23 24 25 26 27 28 29 30 31 32 33 34 35 36 37 38 39 40 41 42 43 44 45 46 47 48 49 50
000
FTUS45 KBOU 171702 AAC
TAFAPA
TAF AMD
KAPA 171702Z 1717/1812 29006KT 1/2SM -RA FG VV002
      TEMPO 1717/1718 1SM -RA BR OVC004
     FM171800 34008KT 3SM -RA BR SCT006 OVC012
     FM172000 30012KT P6SM -SHRA SCT010 OVC025
     FM180100 36008KT 5SM -SHRA SCT015 OVC025
      TEMPO 1801/1804 3SM -SHRA BR BKN015
     FM181000 30005KT P6SM VCSH SCT025 BKN050 PROB30 1810/1812 3SM
      -SHRASN BKN025=

USA.gov is the U.S. government's official web portal to all federal, state and local government web resources and services.